Time;durP1;ratioP1;P1;durP2;ratioP2;P2;SDS_P1;SDS_P2;PMS_P1;PMS_P2;Temp;Humidity;BMP_temperature;BMP_pressure;BME280_temperature;BME280_humidity;BME280_pressure;Samples;Min_cycle;Max_cycle;Signal;HPM_P1;HPM_P2
2021/10/26 00:02:06;;;;;;;5.57;3.45;;;;;;;3.88;91.82;98124.06;4967830;28;20520;-67
2021/10/26 00:04:33;;;;;;;9.00;3.38;;;;;;;4.91;90.13;98268.06;4967503;28;20141;-67
2021/10/26 00:07:00;;;;;;;5.13;2.90;;;;;;;4.45;90.65;98197.59;4965895;28;20111;-67
2021/10/26 00:09:27;;;;;;;9.55;3.38;;;;;;;4.86;91.16;98259.94;4966540;28;20063;-69
2021/10/26 00:11:54;;;;;;;5.32;2.90;;;;;;;5.01;90.08;98256.91;4967064;28;20074;-66
2021/10/26 00:14:21;;;;;;;6.05;3.03;;;;;;;4.75;89.88;98220.06;4967699;28;20047;-66
2021/10/26 00:16:48;;;;;;;10.20;3.10;;;;;;;5.00;90.71;98269.00;4967353;28;20046;-67
2021/10/26 00:19:15;;;;;;;10.77;3.28;;;;;;;4.51;90.37;98171.69;4967755;28;20066;-66
2021/10/26 00:21:41;;;;;;;7.75;3.22;;;;;;;4.01;90.57;98084.91;4967325;28;20047;-67
2021/10/26 00:24:08;;;;;;;9.52;3.65;;;;;;;4.41;90.60;98129.94;4967647;28;20054;-66
2021/10/26 00:26:35;;;;;;;5.57;3.35;;;;;;;5.17;89.91;98244.50;4966895;28;20053;-65
2021/10/26 00:29:03;;;;;;;6.68;3.45;;;;;;;5.27;90.00;98238.78;4967727;28;20051;-68
2021/10/26 00:31:29;;;;;;;7.32;3.67;;;;;;;5.02;90.73;98198.94;4966665;28;20046;-68
2021/10/26 00:33:56;;;;;;;7.32;4.05;;;;;;;4.90;90.28;98184.91;4965804;28;20442;-67
2021/10/26 00:36:24;;;;;;;10.00;4.80;;;;;;;2.52;90.44;97777.22;4965678;28;20055;-67
2021/10/26 00:38:51;;;;;;;10.02;4.90;;;;;;;5.15;89.91;98186.31;4966842;28;20055;-67
2021/10/26 00:41:19;;;;;;;11.43;4.72;;;;;;;5.06;89.55;98160.69;4966632;28;20058;-67
2021/10/26 00:43:47;;;;;;;9.23;4.28;;;;;;;5.56;88.89;98226.34;4966577;28;20050;-67
2021/10/26 00:46:28;;;;;;;9.10;4.60;;;;;;;5.66;89.05;98220.59;4966739;28;20054;-68
2021/10/26 00:48:57;;;;;;;8.68;3.67;;;;;;;5.61;88.46;98220.69;4965681;28;20039;-68
2021/10/26 00:51:24;;;;;;;13.80;4.65;;;;;;;5.70;87.75;98215.28;4965799;28;20059;-68
2021/10/26 00:53:51;;;;;;;9.95;4.10;;;;;;;5.55;88.31;98193.63;4967021;28;20139;-67
2021/10/26 00:56:19;;;;;;;8.38;4.05;;;;;;;5.71;88.70;98211.41;4966344;28;20121;-68
2021/10/26 00:58:46;;;;;;;10.18;4.50;;;;;;;5.30;88.20;98145.59;4966800;28;20057;-69
2021/10/26 01:01:12;;;;;;;8.25;3.97;;;;;;;5.69;87.77;98177.94;4966814;28;20061;-68
2021/10/26 01:03:40;;;;;;;12.55;4.40;;;;;;;5.80;86.71;98201.31;4965729;28;20101;-68
2021/10/26 01:06:09;;;;;;;14.82;5.60;;;;;;;5.77;86.63;98199.19;4965093;28;20055;-66
2021/10/26 01:08:35;;;;;;;10.10;4.55;;;;;;;5.83;86.58;98189.72;4965361;28;20057;-68
2021/10/26 01:11:02;;;;;;;10.50;5.07;;;;;;;5.95;86.09;98184.47;4966138;28;20054;-69
2021/10/26 01:13:29;;;;;;;9.43;4.70;;;;;;;5.89;86.63;98196.72;4966109;28;20062;-69
2021/10/26 01:15:57;;;;;;;10.38;4.85;;;;;;;5.88;87.57;98181.34;4966231;28;20047;-68
2021/10/26 01:18:25;;;;;;;11.48;4.20;;;;;;;5.55;87.57;98119.44;4966425;28;20059;-67
2021/10/26 01:20:53;;;;;;;7.18;4.22;;;;;;;5.94;87.81;98182.84;4965005;28;20054;-68
2021/10/26 01:23:21;;;;;;;9.27;4.63;;;;;;;5.86;87.46;98156.09;4966681;28;20238;-69
2021/10/26 01:25:48;;;;;;;10.23;4.93;;;;;;;5.94;88.56;98169.88;4966171;28;20063;-69
2021/10/26 01:28:15;;;;;;;11.38;4.05;;;;;;;5.94;89.15;98177.34;4966313;28;20062;-69
2021/10/26 01:30:42;;;;;;;8.38;4.03;;;;;;;5.77;89.97;98178.00;4964847;28;20065;-69
2021/10/26 01:33:09;;;;;;;6.13;3.67;;;;;;;5.80;90.49;98176.56;4965924;28;20490;-68
2021/10/26 01:35:36;;;;;;;6.97;4.25;;;;;;;5.86;89.65;98170.63;4965797;28;20062;-68
2021/10/26 01:38:04;;;;;;;6.70;3.40;;;;;;;5.94;89.60;98171.84;4964490;28;20058;-69
2021/10/26 01:40:31;;;;;;;23.50;8.15;;;;;;;5.92;90.09;98179.59;4964445;28;20058;-69
2021/10/26 01:42:58;;;;;;;9.73;5.03;;;;;;;5.94;89.92;98166.34;4964024;28;20055;-68
2021/10/26 01:45:25;;;;;;;10.52;4.03;;;;;;;5.20;90.07;98035.16;4965162;28;20480;-69
2021/10/26 01:47:52;;;;;;;12.70;4.65;;;;;;;6.10;88.19;98162.09;4966213;28;20454;-68
2021/10/26 01:50:19;;;;;;;12.00;4.78;;;;;;;5.96;88.53;98153.91;4965759;28;20047;-69
2021/10/26 01:52:46;;;;;;;11.10;4.30;;;;;;;5.93;89.63;98148.22;4965872;28;20046;-69
2021/10/26 01:55:12;;;;;;;11.77;5.07;;;;;;;5.41;91.00;98082.97;4965479;28;20150;-68
2021/10/26 01:57:39;;;;;;;9.40;4.00;;;;;;;5.96;91.56;98142.06;4965726;28;20081;-68
2021/10/26 02:00:09;;;;;;;9.50;4.75;;;;;;;3.45;90.98;97724.69;4965204;28;20047;-66
2021/10/26 02:02:36;;;;;;;7.15;4.05;;;;;;;6.15;91.44;98150.94;4965468;28;20053;-67
2021/10/26 02:05:04;;;;;;;7.18;3.67;;;;;;;5.70;90.30;98067.69;4965000;28;20722;-67
2021/10/26 02:07:31;;;;;;;4.82;2.72;;;;;;;6.07;91.14;98143.44;4965676;28;20491;-68
2021/10/26 02:09:58;;;;;;;6.75;3.22;;;;;;;6.07;90.49;98135.19;4965372;28;20047;-68
2021/10/26 02:12:25;;;;;;;7.18;3.22;;;;;;;6.15;91.09;98150.94;4965031;28;20066;-68
2021/10/26 02:14:52;;;;;;;7.70;3.22;;;;;;;6.17;90.92;98137.69;4965025;28;20125;-71
2021/10/26 02:17:19;;;;;;;7.90;3.60;;;;;;;6.16;91.35;98125.88;4957229;28;20605;-67
2021/10/26 02:19:45;;;;;;;10.30;3.05;;;;;;;6.15;91.50;98117.94;4964942;28;20054;-68
2021/10/26 02:22:12;;;;;;;6.25;2.92;;;;;;;6.17;91.93;98137.69;4963963;28;20442;-68
2021/10/26 02:24:39;;;;;;;7.00;2.95;;;;;;;6.28;91.50;98139.03;4963725;28;20547;-68
2021/10/26 02:27:06;;;;;;;8.25;3.88;;;;;;;6.18;92.37;98117.28;4965846;28;20129;-68
2021/10/26 02:29:33;;;;;;;8.30;3.33;;;;;;;6.23;91.16;98119.91;4965421;28;20058;-68
2021/10/26 02:31:59;;;;;;;9.30;3.70;;;;;;;6.37;91.21;98131.63;4965279;28;20054;-69
2021/10/26 02:34:26;;;;;;;10.25;4.03;;;;;;;6.54;89.11;98136.41;4965042;28;20058;-68
2021/10/26 02:36:53;;;;;;;11.02;4.32;;;;;;;6.53;88.63;98134.81;4964146;28;20051;-67
2021/10/26 02:39:20;;;;;;;11.88;6.43;;;;;;;5.98;88.38;98052.66;4964738;28;20054;-69
2021/10/26 02:41:47;;;;;;;13.25;5.90;;;;;;;6.50;88.91;98129.91;4963395;28;20054;-67
2021/10/26 02:44:14;;;;;;;16.50;6.88;;;;;;;6.50;88.67;98125.22;4964886;28;20078;-67
2021/10/26 02:46:40;;;;;;;14.00;6.82;;;;;;;6.53;89.14;98118.28;4965516;28;20062;-67
2021/10/26 02:49:07;;;;;;;14.40;7.40;;;;;;;6.53;88.67;98130.09;4963297;28;20054;-67
2021/10/26 02:51:34;;;;;;;16.45;6.45;;;;;;;5.83;88.21;98016.50;4964801;28;20062;-67
2021/10/26 02:54:01;;;;;;;14.10;4.82;;;;;;;6.57;88.57;98127.53;4964926;28;20059;-66
2021/10/26 02:56:28;;;;;;;8.93;4.90;;;;;;;6.57;88.37;98127.53;4964657;28;20046;-67
2021/10/26 02:58:55;;;;;;;9.13;4.80;;;;;;;6.47;89.47;98128.63;4964919;28;20079;-67
2021/10/26 03:01:21;;;;;;;8.23;4.97;;;;;;;6.44;89.93;98121.00;4964707;28;20747;-69
2021/10/26 03:03:51;;;;;;;9.73;5.47;;;;;;;6.10;90.43;98060.31;4965196;28;20429;-67
2021/10/26 03:06:18;;;;;;;9.63;5.05;;;;;;;6.25;89.21;98073.66;4964439;28;20058;-69
2021/10/26 03:08:46;;;;;;;10.85;5.88;;;;;;;6.01;90.49;98070.44;4964914;28;20864;-70
2021/10/26 03:11:13;;;;;;;17.08;7.85;;;;;;;6.49;90.37;98120.84;4964225;28;20514;-67
2021/10/26 03:13:40;;;;;;;19.02;10.43;;;;;;;6.49;90.40;98128.31;4964807;28;20054;-70
2021/10/26 03:16:07;;;;;;;24.33;10.70;;;;;;;6.48;90.35;98121.97;4964754;28;20061;-69
2021/10/26 03:18:34;;;;;;;18.65;8.35;;;;;;;6.60;89.21;98129.63;4963394;28;20050;-68
2021/10/26 03:21:01;;;;;;;16.02;7.72;;;;;;;6.22;90.03;98066.03;4964527;28;20058;-68
2021/10/26 03:23:28;;;;;;;22.55;8.98;;;;;;;6.48;90.45;98110.97;4963205;28;20063;-67
2021/10/26 03:25:55;;;;;;;16.45;8.07;;;;;;;6.52;89.55;98111.97;4963105;28;20061;-68
2021/10/26 03:28:21;;;;;;;23.02;11.55;;;;;;;6.31;89.32;98069.63;4969224;28;20058;-66
2021/10/26 03:30:48;;;;;;;11.90;7.03;;;;;;;6.56;89.53;98121.19;4966407;28;20051;-68
2021/10/26 03:33:15;;;;;;;11.82;6.18;;;;;;;6.41;90.36;98113.38;4966517;28;20533;-66
2021/10/26 03:35:41;;;;;;;9.93;4.07;;;;;;;6.35;90.72;98100.91;4967709;28;20779;-66
2021/10/26 03:38:08;;;;;;;11.10;5.20;;;;;;;5.27;92.48;97975.09;4968522;28;20058;-66
2021/10/26 03:40:36;;;;;;;13.30;6.25;;;;;;;5.35;92.66;97955.91;4966039;28;20050;-66
2021/10/26 03:43:02;;;;;;;9.90;4.82;;;;;;;5.46;92.15;97983.94;4968118;28;20062;-67
2021/10/26 03:45:29;;;;;;;7.97;4.88;;;;;;;5.52;92.45;97988.16;4967732;28;20054;-66
2021/10/26 03:47:56;;;;;;;11.93;6.28;;;;;;;5.59;92.78;98021.53;4966970;28;20054;-67
2021/10/26 03:50:23;;;;;;;9.88;5.72;;;;;;;6.26;93.57;98113.78;4966314;28;20050;-65
2021/10/26 03:52:49;;;;;;;12.25;6.68;;;;;;;6.26;93.05;98113.78;4966508;28;20653;-66
2021/10/26 03:55:16;;;;;;;19.02;7.63;;;;;;;6.21;93.68;98110.38;4967504;28;20062;-66
2021/10/26 03:57:43;;;;;;;27.02;14.90;;;;;;;6.22;94.04;98107.31;4967917;28;20058;-67
2021/10/26 04:00:10;;;;;;;10.98;6.13;;;;;;;6.39;92.59;98101.03;4967235;28;20065;-68
2021/10/26 04:02:40;;;;;;;13.65;6.30;;;;;;;6.47;92.05;98114.84;4966169;28;20549;-67
2021/10/26 04:08:19;;;;;;;13.85;6.65;;;;;;;6.36;94.21;98099.75;4968358;28;20059;-67
2021/10/26 04:10:54;;;;;;;14.80;7.07;;;;;;;6.35;94.72;98100.91;4967557;28;20077;-67
2021/10/26 04:13:20;;;;;;;13.73;6.35;;;;;;;5.96;94.36;98070.59;4967586;28;20451;-68
2021/10/26 04:15:48;;;;;;;12.32;6.63;;;;;;;6.48;93.49;98094.44;4965644;28;20081;-68
2021/10/26 04:18:15;;;;;;;16.00;5.55;;;;;;;6.42;94.45;98100.44;4967498;28;20082;-68
2021/10/26 04:20:43;;;;;;;9.90;5.25;;;;;;;5.65;94.65;97987.28;4966984;28;20523;-68
2021/10/26 04:23:09;;;;;;;17.52;9.93;;;;;;;6.39;95.43;98101.88;4967534;28;20505;-67
2021/10/26 04:25:37;;;;;;;13.95;7.03;;;;;;;5.97;94.82;98019.97;4965954;28;20908;-68
2021/10/26 04:28:04;;;;;;;9.50;4.43;;;;;;;6.45;94.46;98092.34;4967656;28;20065;-67
2021/10/26 04:30:34;;;;;;;12.75;6.22;;;;;;;5.92;95.43;98026.44;4965617;28;20058;-67
2021/10/26 04:33:02;;;;;;;15.27;6.93;;;;;;;6.40;96.09;98092.50;4967158;28;20058;-66
2021/10/26 04:35:30;;;;;;;15.00;7.78;;;;;;;6.42;96.37;98094.94;4966889;28;20425;-67
2021/10/26 04:37:56;;;;;;;19.48;7.78;;;;;;;6.46;96.45;98091.22;4967244;28;20494;-67
2021/10/26 04:40:24;;;;;;;17.77;6.93;;;;;;;6.54;94.90;98095.94;4966915;28;20061;-69
2021/10/26 04:42:50;;;;;;;18.67;7.20;;;;;;;6.49;93.80;98081.50;4967583;28;20061;-69
2021/10/26 04:45:17;;;;;;;26.65;8.55;;;;;;;6.47;94.89;98098.34;4966841;28;20067;-68
2021/10/26 04:47:45;;;;;;;19.35;7.20;;;;;;;5.72;94.67;97954.66;4967437;28;20055;-66
2021/10/26 04:50:13;;;;;;;18.25;7.95;;;;;;;5.86;95.32;97988.38;4966372;28;20058;-68
2021/10/26 04:52:40;;;;;;;24.30;8.50;;;;;;;6.48;94.61;98072.44;4966386;28;20154;-67
2021/10/26 04:55:07;;;;;;;16.77;8.10;;;;;;;6.24;94.21;98047.28;4965374;28;20046;-69
2021/10/26 04:57:34;;;;;;;16.02;8.60;;;;;;;6.64;94.83;98092.09;4967169;28;20484;-68
2021/10/26 05:00:04;;;;;;;12.38;6.43;;;;;;;6.68;93.76;98087.56;4965346;28;20051;-66
2021/10/26 05:02:30;;;;;;;18.73;8.68;;;;;;;6.24;94.05;98040.97;4967053;28;20061;-68
2021/10/26 05:04:57;;;;;;;21.05;8.35;;;;;;;6.48;93.62;98108.22;4966279;28;20834;-67
2021/10/26 05:07:24;;;;;;;19.60;8.85;;;;;;;6.54;93.69;98104.22;4966425;28;20057;-67
2021/10/26 05:09:51;;;;;;;22.45;7.95;;;;;;;6.43;93.54;98080.84;4966337;28;20051;-69
2021/10/26 05:12:18;;;;;;;16.33;8.13;;;;;;;6.55;93.85;98094.81;4965903;28;20058;-69
2021/10/26 05:14:44;;;;;;;17.83;8.45;;;;;;;6.51;93.04;98088.34;4966240;28;20442;-67
2021/10/26 05:17:18;;;;;;;18.83;8.32;;;;;;;6.58;93.27;98105.19;4964840;28;20070;-67
2021/10/26 05:19:49;;;;;;;18.70;8.30;;;;;;;6.64;91.71;98128.69;4965117;28;20481;-67
2021/10/26 05:22:18;;;;;;;15.68;8.45;;;;;;;6.61;91.94;98115.56;4966589;28;20051;-66
2021/10/26 05:24:45;;;;;;;15.38;6.55;;;;;;;6.34;91.80;98071.75;4965005;28;20073;-66
2021/10/26 05:27:12;;;;;;;15.90;6.35;;;;;;;6.45;92.53;98108.84;4966117;28;20058;-68
2021/10/26 05:29:40;;;;;;;24.35;9.13;;;;;;;6.34;92.52;98088.25;4964904;28;20050;-68
2021/10/26 05:32:09;;;;;;;14.57;7.47;;;;;;;5.93;93.39;98021.72;4965397;28;20047;-68
2021/10/26 05:34:40;;;;;;;11.85;6.25;;;;;;;6.55;92.91;98108.56;4964559;28;20117;-68
2021/10/26 05:37:10;;;;;;;12.45;7.15;;;;;;;6.71;91.03;98112.53;4965616;28;20050;-69
2021/10/26 05:39:38;;;;;;;16.05;6.70;;;;;;;6.74;91.52;98109.13;4966036;28;20054;-68
2021/10/26 05:42:06;;;;;;;13.02;6.32;;;;;;;6.94;91.37;98114.03;4965947;28;20051;-68
2021/10/26 05:44:34;;;;;;;11.05;5.00;;;;;;;7.11;86.92;98111.31;4965824;28;20062;-68
2021/10/26 05:47:01;;;;;;;11.15;4.80;;;;;;;7.05;87.80;98120.06;4965786;28;20100;-69
2021/10/26 05:49:28;;;;;;;9.65;4.90;;;;;;;4.78;87.92;97785.84;4963872;28;20047;-70
2021/10/26 05:51:55;;;;;;;10.10;4.82;;;;;;;5.44;87.33;97844.13;4961943;28;20149;-68
2021/10/26 05:54:22;;;;;;;37.78;13.48;;;;;;;7.25;87.02;98112.00;4964536;28;20050;-64
2021/10/26 05:56:49;;;;;;;29.77;11.65;;;;;;;7.34;86.93;98128.53;4960225;28;20146;-67
2021/10/26 05:59:16;;;;;;;24.25;11.48;;;;;;;7.54;85.83;98134.22;4963557;28;20230;-67
2021/10/26 06:01:43;;;;;;;39.28;14.35;;;;;;;5.26;85.36;97729.03;4964025;28;20054;-71
2021/10/26 06:04:10;;;;;;;33.10;13.63;;;;;;;7.36;84.49;98049.91;4965020;28;20046;-71
2021/10/26 06:06:37;;;;;;;35.53;14.38;;;;;;;6.59;83.69;97908.59;4964287;28;20433;-68
2021/10/26 06:09:03;;;;;;;29.17;14.85;;;;;;;7.93;82.92;98118.63;4963858;28;20054;-69
2021/10/26 06:11:30;;;;;;;42.30;21.42;;;;;;;6.19;82.74;97852.09;4945640;28;20055;-69
2021/10/26 06:14:04;;;;;;;34.17;19.77;;;;;;;8.15;82.92;98126.69;4944856;29;20055;-69
2021/10/26 06:16:34;;;;;;;34.17;15.55;;;;;;;7.38;82.55;97975.16;4954648;28;20043;-70
2021/10/26 06:19:00;;;;;;;25.75;12.88;;;;;;;8.39;82.01;98127.81;4965807;28;20054;-68
2021/10/26 06:21:28;;;;;;;23.15;11.52;;;;;;;8.17;80.94;98080.25;4953542;28;20059;-68
2021/10/26 06:23:56;;;;;;;14.55;8.23;;;;;;;8.39;80.25;98093.84;4961332;28;20348;-60
2021/10/26 06:26:23;;;;;;;15.07;8.40;;;;;;;8.19;79.79;98050.38;4952117;28;20141;-62
2021/10/26 06:28:50;;;;;;;15.05;7.07;;;;;;;8.63;78.10;98099.59;4963361;28;20137;-68
2021/10/26 06:31:17;;;;;;;14.68;7.95;;;;;;;7.92;77.05;97968.81;4964552;28;20050;-62
2021/10/26 06:33:45;;;;;;;18.02;8.20;;;;;;;9.03;77.14;98134.81;4963513;28;20437;-63
2021/10/26 06:36:12;;;;;;;10.30;5.53;;;;;;;8.48;76.25;98050.44;4962837;28;20050;-68
2021/10/26 06:38:39;;;;;;;8.93;5.55;;;;;;;8.97;76.93;98127.06;4964916;28;20067;-59
2021/10/26 06:41:07;;;;;;;9.48;5.70;;;;;;;9.10;76.44;98126.00;4964192;28;20057;-61
2021/10/26 06:43:35;;;;;;;13.88;6.15;;;;;;;9.28;75.59;98121.19;4962794;28;20051;-61
2021/10/26 06:46:04;;;;;;;11.68;6.65;;;;;;;8.81;75.91;98045.88;4944973;28;20145;-67
2021/10/26 06:48:31;;;;;;;39.90;15.30;;;;;;;9.67;73.71;98132.59;4945592;28;20903;-69
2021/10/26 06:50:57;;;;;;;11.70;6.75;;;;;;;9.37;68.44;98075.72;4946695;28;20051;-62
2021/10/26 06:53:25;;;;;;;10.30;6.05;;;;;;;9.36;69.04;98079.63;4963055;28;20433;-67
2021/10/26 06:55:52;;;;;;;9.10;4.60;;;;;;;7.16;64.48;97706.16;4964334;28;20702;-62
2021/10/26 06:58:19;;;;;;;13.98;5.88;;;;;;;9.79;66.19;98121.59;4954196;28;20178;-70
2021/10/26 07:00:46;;;;;;;13.50;6.25;;;;;;;9.30;65.64;98053.34;4960794;28;20051;-65
2021/10/26 07:03:13;;;;;;;16.05;6.85;;;;;;;9.94;64.68;98129.25;4967445;28;20050;-65
2021/10/26 07:05:39;;;;;;;12.45;6.32;;;;;;;9.77;66.08;98128.63;4967880;28;20406;-63
2021/10/26 07:08:06;;;;;;;19.98;9.80;;;;;;;10.03;66.66;98143.03;4965488;28;20161;-62
2021/10/26 07:10:33;;;;;;;15.20;8.07;;;;;;;9.20;66.23;97982.66;4967603;28;20055;-67
2021/10/26 07:13:02;;;;;;;14.95;8.07;;;;;;;10.32;65.04;98129.88;4965972;28;20059;-68
2021/10/26 07:15:30;;;;;;;15.90;7.72;;;;;;;10.50;64.26;98131.31;4967407;28;20069;-63
2021/10/26 07:17:57;;;;;;;14.93;8.05;;;;;;;10.35;63.76;98084.88;4967321;28;20440;-63
2021/10/26 07:20:23;;;;;;;13.15;7.60;;;;;;;10.62;61.87;98128.56;4965878;28;20054;-64
2021/10/26 07:22:53;;;;;;;11.35;6.60;;;;;;;10.21;61.81;98059.47;4965953;28;20066;-61
2021/10/26 07:25:20;;;;;;;12.00;7.07;;;;;;;10.07;61.56;98061.75;4957194;28;20090;-68
2021/10/26 07:27:49;;;;;;;12.05;7.13;;;;;;;9.62;60.38;97930.88;4967325;28;20460;-63
2021/10/26 07:30:16;;;;;;;15.05;5.57;;;;;;;10.85;59.01;98111.47;4967826;28;20505;-62
2021/10/26 07:32:43;;;;;;;7.85;4.47;;;;;;;10.81;58.27;98113.34;4967404;28;20057;-61
2021/10/26 07:35:10;;;;;;;12.40;6.75;;;;;;;9.97;59.56;97973.59;4967449;28;20134;-67
2021/10/26 07:37:43;;;;;;;8.93;6.68;;;;;;;9.32;58.54;97802.22;4965049;28;20058;-64
2021/10/26 07:40:12;;;;;;;12.07;5.95;;;;;;;11.42;57.49;98112.13;4965081;28;20102;-67
2021/10/26 07:42:42;;;;;;;9.80;4.43;;;;;;;11.39;54.65;98107.28;4956679;28;20131;-62
2021/10/26 07:45:12;;;;;;;7.45;4.93;;;;;;;11.21;55.06;98062.38;4962487;28;20055;-65
2021/10/26 07:47:38;;;;;;;14.15;6.90;;;;;;;11.23;56.57;98060.06;4966916;28;20066;-64
2021/10/26 07:50:07;;;;;;;12.50;7.63;;;;;;;11.67;55.97;98108.19;4964175;28;20053;-63
2021/10/26 07:52:35;;;;;;;16.00;8.10;;;;;;;11.57;56.58;98069.81;4949507;28;20657;-66
2021/10/26 07:55:04;;;;;;;14.95;7.45;;;;;;;11.27;57.71;98121.97;4951000;28;20059;-68
2021/10/26 07:57:31;;;;;;;39.92;15.15;;;;;;;10.91;56.97;98036.06;4972570;28;20126;-61
2021/10/26 07:59:58;;;;;;;13.70;6.20;;;;;;;11.45;57.16;98100.34;4966973;28;20046;-64
2021/10/26 08:02:25;;;;;;;6.85;4.88;;;;;;;10.21;58.81;98103.75;4953770;28;20059;-61
2021/10/26 08:04:56;;;;;;;13.27;6.13;;;;;;;10.00;59.42;98105.75;4960327;28;20058;-63
2021/10/26 08:07:24;;;;;;;6.30;4.53;;;;;;;9.81;59.57;98063.94;4948184;28;20053;-59
2021/10/26 08:09:55;;;;;;;15.48;6.03;;;;;;;9.84;59.97;98052.19;4951846;28;20046;-59
2021/10/26 08:12:24;;;;;;;11.80;6.70;;;;;;;10.14;59.44;98059.22;4966305;28;20146;-64
2021/10/26 08:14:51;;;;;;;34.00;15.63;;;;;;;10.65;59.71;98089.06;4954625;28;20047;-66
2021/10/26 08:17:18;;;;;;;17.73;7.07;;;;;;;9.36;58.65;97855.66;4965380;28;20090;-65
2021/10/26 08:19:47;;;;;;;9.25;5.28;;;;;;;9.98;57.93;97985.44;4965019;28;20065;-62
2021/10/26 08:22:17;;;;;;;19.08;7.95;;;;;;;10.50;58.22;98037.13;4966371;28;20076;-63
2021/10/26 08:24:45;;;;;;;10.73;5.72;;;;;;;10.47;57.77;97999.03;4966208;28;20065;-62
2021/10/26 08:27:17;;;;;;;10.73;5.82;;;;;;;10.57;57.44;98015.19;4964266;28;20070;-62
2021/10/26 08:37:41;;;;;;;11.80;5.28;;;;;;;11.73;55.17;98090.94;4973860;28;20412;-66
2021/10/26 08:40:09;;;;;;;8.10;4.55;;;;;;;11.06;55.41;97999.31;4965417;28;20061;-63
2021/10/26 08:42:36;;;;;;;10.63;4.78;;;;;;;12.01;52.99;98080.63;4950441;28;20427;-69
2021/10/26 08:45:05;;;;;;;7.30;4.50;;;;;;;11.31;53.47;98028.59;4978381;28;20058;-69
2021/10/26 08:47:33;;;;;;;7.13;4.60;;;;;;;12.27;53.62;98082.94;4984298;28;20426;-61
2021/10/26 08:50:01;;;;;;;6.45;4.65;;;;;;;12.45;53.01;98081.44;4963898;28;20069;-64
2021/10/26 08:52:28;;;;;;;6.38;3.90;;;;;;;12.50;52.05;98075.63;4957662;28;20510;-60
2021/10/26 08:54:55;;;;;;;7.00;4.20;;;;;;;11.42;52.84;98023.34;4963651;28;20505;-61
2021/10/26 08:57:21;;;;;;;9.07;4.80;;;;;;;11.96;53.06;98082.88;4965387;28;20050;-68
2021/10/26 08:59:52;;;;;;;8.27;4.78;;;;;;;12.12;52.53;98155.94;4965825;28;20441;-62
2021/10/26 09:02:51;;;;;;;10.68;5.18;;;;;;;10.45;52.29;97785.28;4966142;28;20150;-62
2021/10/26 09:05:28;;;;;;;11.50;4.60;;;;;;;11.94;52.11;98007.44;4966483;28;20054;-61
2021/10/26 09:08:07;;;;;;;6.75;4.80;;;;;;;12.00;52.04;98067.91;4965490;28;20050;-61
2021/10/26 09:10:36;;;;;;;6.55;4.28;;;;;;;12.02;53.48;98075.88;4963877;28;20051;-70
2021/10/26 09:18:50;;;;;;;5.07;4.07;;;;;;;11.47;52.96;97889.94;4966247;28;20137;-67
2021/10/26 09:21:31;;;;;;;7.25;4.47;;;;;;;12.50;52.06;98052.56;4965794;28;20533;-69
2021/10/26 09:24:00;;;;;;;11.43;3.70;;;;;;;12.61;52.44;98060.03;4965054;28;20058;-68
2021/10/26 09:26:45;;;;;;;7.78;4.22;;;;;;;12.79;52.51;98036.22;4965731;28;20055;-68
2021/10/26 09:29:12;;;;;;;5.50;4.03;;;;;;;13.02;52.03;98037.22;4964816;28;20054;-63
2021/10/26 09:31:40;;;;;;;7.95;4.43;;;;;;;13.13;51.89;98032.72;4970912;28;20054;-66
2021/10/26 09:34:17;;;;;;;5.38;3.55;;;;;;;13.29;49.27;98036.22;4964089;28;20519;-66
2021/10/26 09:36:47;;;;;;;4.60;3.97;;;;;;;13.43;50.60;98064.41;4949788;28;20055;-66
2021/10/26 09:39:17;;;;;;;5.82;4.05;;;;;;;12.90;49.53;97951.09;4946118;28;20051;-63
2021/10/26 09:41:51;;;;;;;6.10;4.47;;;;;;;13.57;48.56;98024.91;4964926;28;20293;-65
2021/10/26 09:44:20;;;;;;;6.47;4.30;;;;;;;13.53;49.39;98010.94;4963939;28;20050;-61
2021/10/26 09:46:56;;;;;;;14.68;6.22;;;;;;;13.46;50.18;98008.00;4953452;28;20051;-66
2021/10/26 09:49:53;;;;;;;5.70;3.58;;;;;;;13.58;49.09;98002.28;4965467;28;20047;-65
2021/10/26 09:52:25;;;;;;;6.30;4.93;;;;;;;13.74;48.93;97990.28;4956210;28;20063;-62
2021/10/26 09:55:28;;;;;;;7.05;4.03;;;;;;;13.66;49.09;97990.13;4947160;28;20081;-61
2021/10/26 09:58:05;;;;;;;5.00;3.90;;;;;;;12.23;48.58;97826.47;4963445;28;20042;-67
2021/10/26 10:00:38;;;;;;;7.82;4.57;;;;;;;13.43;49.08;97947.50;4962683;28;20055;-58
2021/10/26 10:03:05;;;;;;;;;;;;;;;13.92;48.28;97969.13;4954646;28;20517;-66
2021/10/26 10:05:51;;;;;;;4.93;3.80;;;;;;;13.79;48.73;97976.03;4963864;28;19926;-61
2021/10/26 10:08:20;;;;;;;4.95;3.80;;;;;;;13.57;49.01;97964.50;4963722;28;20106;-73
2021/10/26 10:10:51;;;;;;;6.07;3.65;;;;;;;13.17;49.55;97950.13;4962244;28;20105;-66
2021/10/26 10:13:21;;;;;;;6.60;4.10;;;;;;;12.32;49.63;97840.97;4962827;28;20077;-63
2021/10/26 10:15:49;;;;;;;6.75;4.00;;;;;;;11.19;50.83;97714.47;4963246;28;20058;-65
2021/10/26 10:18:19;;;;;;;4.97;3.75;;;;;;;13.34;50.79;97955.25;4962705;28;20046;-65
2021/10/26 10:20:53;;;;;;;4.95;3.53;;;;;;;13.16;50.56;97919.88;4964529;28;20138;-67
2021/10/26 10:23:22;;;;;;;3.92;3.50;;;;;;;13.12;50.21;97952.41;4963417;28;20057;-65
2021/10/26 10:25:49;;;;;;;4.90;3.45;;;;;;;13.25;50.71;97929.63;4964745;28;20062;-62
2021/10/26 10:28:18;;;;;;;7.63;4.82;;;;;;;13.67;49.90;97938.81;4959906;28;20073;-68
2021/10/26 10:30:47;;;;;;;6.20;3.70;;;;;;;13.33;50.30;97936.94;4957431;28;20346;-62
2021/10/26 10:33:18;;;;;;;4.90;3.15;;;;;;;12.89;51.80;97935.56;4960606;28;20050;-62
2021/10/26 10:35:48;;;;;;;4.55;3.30;;;;;;;11.70;51.69;97757.75;4961997;28;20051;-62
2021/10/26 10:38:18;;;;;;;7.18;3.97;;;;;;;10.75;53.26;97665.81;4964868;28;20429;-65
2021/10/26 10:40:45;;;;;;;5.88;4.20;;;;;;;11.43;53.41;97770.56;4963947;28;20137;-66
2021/10/26 10:43:12;;;;;;;23.35;9.27;;;;;;;12.71;52.32;97858.50;4964073;28;20085;-63
2021/10/26 10:45:44;;;;;;;6.72;4.57;;;;;;;13.35;51.69;97911.53;4961188;28;20804;-63
2021/10/26 10:48:32;;;;;;;5.07;3.33;;;;;;;13.41;50.02;97905.31;4963494;28;20591;-61
2021/10/26 10:51:17;;;;;;;6.20;3.22;;;;;;;12.86;50.95;97882.66;4946374;28;20059;-66
2021/10/26 10:53:43;;;;;;;6.57;3.58;;;;;;;12.06;52.14;97738.00;4964202;28;20058;-63
2021/10/26 10:56:20;;;;;;;11.98;3.72;;;;;;;13.25;50.69;97857.28;4979058;28;20058;-66
2021/10/26 10:58:49;;;;;;;4.28;3.65;;;;;;;12.54;49.97;97717.16;4965080;28;20065;-67
2021/10/26 11:01:21;;;;;;;5.70;3.13;;;;;;;13.16;51.48;97890.09;4962953;28;20525;-69
2021/10/26 11:03:49;;;;;;;7.45;4.38;;;;;;;13.65;52.09;97888.28;4961347;28;20050;-63
2021/10/26 11:06:41;;;;;;;9.63;4.88;;;;;;;13.47;50.78;97881.56;4961079;28;20051;-62
2021/10/26 11:09:39;;;;;;;5.28;3.30;;;;;;;13.64;51.09;97872.75;4963604;28;20057;-69
2021/10/26 11:12:11;;;;;;;16.77;3.60;;;;;;;12.96;52.16;97834.81;4944438;28;20156;-66
2021/10/26 11:14:51;;;;;;;7.03;3.92;;;;;;;12.26;50.43;97661.84;4963783;28;20430;-65
2021/10/26 11:17:39;;;;;;;6.05;3.28;;;;;;;13.88;51.18;97852.06;4963913;28;20046;-67
2021/10/26 11:20:06;;;;;;;3.65;3.17;;;;;;;13.96;50.72;97861.38;4963701;28;20093;-63
2021/10/26 11:22:58;;;;;;;3.83;3.20;;;;;;;14.25;50.08;97849.53;4962324;28;20047;-62
2021/10/26 11:25:32;;;;;;;10.25;5.63;;;;;;;14.19;50.20;97845.41;4964321;28;20062;-71
2021/10/26 11:27:59;;;;;;;4.95;3.78;;;;;;;14.04;50.03;97843.56;4963684;28;20146;-66
2021/10/26 11:30:28;;;;;;;6.68;4.05;;;;;;;14.07;49.84;97848.44;4962931;28;20161;-65
2021/10/26 11:33:13;;;;;;;4.30;3.72;;;;;;;13.70;51.49;97834.28;4949280;28;20046;-62
2021/10/26 11:35:47;;;;;;;5.32;4.00;;;;;;;13.77;51.47;97856.66;4961636;28;20047;-65
2021/10/26 11:38:40;;;;;;;4.32;3.42;;;;;;;13.37;51.49;97840.41;4963850;28;20058;-69
2021/10/26 11:41:11;;;;;;;4.53;3.40;;;;;;;13.78;51.07;97835.19;4963509;28;20090;-72
2021/10/26 11:43:52;;;;;;;7.93;3.40;;;;;;;13.63;51.49;97804.31;4964670;28;20069;-63
2021/10/26 11:46:25;;;;;;;8.60;3.20;;;;;;;13.36;52.14;97824.91;4963068;28;20537;-62
2021/10/26 11:49:02;;;;;;;6.57;4.07;;;;;;;13.23;53.07;97828.22;4966444;28;20078;-63
2021/10/26 11:51:40;;;;;;;3.25;2.92;;;;;;;13.31;52.47;97797.38;4965794;28;20042;-63
2021/10/26 11:54:16;;;;;;;5.45;3.53;;;;;;;13.03;51.65;97699.50;4967180;28;20055;-66
2021/10/26 11:56:51;;;;;;;6.60;3.25;;;;;;;13.72;51.46;97806.06;4967307;28;20065;-68
2021/10/26 11:59:26;;;;;;;9.55;4.53;;;;;;;13.73;51.81;97810.44;4967422;28;20062;-65
2021/10/26 12:02:02;;;;;;;5.22;3.53;;;;;;;13.85;51.30;97813.03;4965216;28;20061;-63